Time;durP1;ratioP1;P1;durP2;ratioP2;P2;SDS_P1;SDS_P2;PMS_P1;PMS_P2;Temp;Humidity;BMP_temperature;BMP_pressure;BME280_temperature;BME280_humidity;BME280_pressure;Samples;Min_cycle;Max_cycle;Signal;HPM_P1;HPM_P2
2022/10/30 00:01:00;;;;;;;5.60;3.13;;;18.30;92.50;;;;;;4930807;29;20103;-78
2022/10/30 00:03:26;;;;;;;5.30;2.80;;;18.30;92.50;;;;;;4929837;29;20042;-78
2022/10/30 00:05:51;;;;;;;6.38;3.17;;;18.30;92.60;;;;;;4915002;29;20164;-77
2022/10/30 00:08:19;;;;;;;5.63;3.00;;;18.30;92.50;;;;;;4931030;29;20394;-78
2022/10/30 00:10:46;;;;;;;6.47;2.70;;;18.30;92.50;;;;;;4929562;29;20130;-78
2022/10/30 00:13:12;;;;;;;6.60;2.97;;;18.40;92.50;;;;;;4930606;29;20077;-78
2022/10/30 00:15:38;;;;;;;5.90;3.15;;;18.30;92.40;;;;;;4929263;29;20032;-78
2022/10/30 00:18:04;;;;;;;6.40;3.50;;;18.40;92.40;;;;;;4930080;29;20038;-78
2022/10/30 00:20:30;;;;;;;5.22;2.67;;;18.40;92.40;;;;;;4929254;29;20024;-77
2022/10/30 00:22:56;;;;;;;6.53;3.40;;;18.20;92.30;;;;;;4930830;29;20405;-78
2022/10/30 00:25:21;;;;;;;6.55;3.10;;;18.30;92.30;;;;;;4930911;29;20034;-79
2022/10/30 00:27:47;;;;;;;5.50;3.15;;;18.30;92.30;;;;;;4931034;29;20028;-79
2022/10/30 00:30:14;;;;;;;6.05;3.38;;;18.30;92.40;;;;;;4931455;29;20056;-79
2022/10/30 00:32:41;;;;;;;6.07;3.17;;;18.30;92.40;;;;;;4933755;29;20054;-78
2022/10/30 00:35:08;;;;;;;6.82;3.20;;;18.30;92.40;;;;;;4932524;29;20473;-79
2022/10/30 00:37:33;;;;;;;6.00;2.97;;;18.30;92.50;;;;;;4932528;29;20040;-78
2022/10/30 00:39:59;;;;;;;5.75;2.90;;;18.30;92.50;;;;;;4930347;29;20046;-79
2022/10/30 00:42:29;;;;;;;5.50;3.03;;;18.30;92.40;;;;;;4931594;29;20032;-78
2022/10/30 00:44:54;;;;;;;6.20;3.50;;;18.30;92.50;;;;;;4932294;29;20055;-79
2022/10/30 00:47:28;;;;;;;6.90;3.25;;;18.30;92.40;;;;;;4934576;29;20132;-78
2022/10/30 00:50:11;;;;;;;6.03;3.10;;;18.30;92.40;;;;;;4933120;29;20020;-79
2022/10/30 00:52:46;;;;;;;4.85;2.90;;;18.30;92.40;;;;;;4933688;29;20093;-79
2022/10/30 00:55:17;;;;;;;6.10;3.22;;;18.30;92.40;;;;;;4932662;29;20031;-79
2022/10/30 00:57:44;;;;;;;5.65;2.85;;;18.10;92.30;;;;;;4933113;29;20080;-78
2022/10/30 01:00:10;;;;;;;7.22;3.35;;;18.30;92.50;;;;;;4930940;29;20043;-78
2022/10/30 01:02:38;;;;;;;5.43;2.70;;;18.30;92.50;;;;;;4932144;29;20414;-77
2022/10/30 01:05:04;;;;;;;5.78;3.08;;;18.30;92.50;;;;;;4933940;29;20183;-79
2022/10/30 01:07:30;;;;;;;5.70;3.05;;;18.30;92.50;;;;;;4931566;29;20031;-79
2022/10/30 01:09:55;;;;;;;5.03;2.83;;;18.30;92.40;;;;;;4935150;29;20383;-78
2022/10/30 01:12:21;;;;;;;5.13;2.85;;;18.30;92.40;;;;;;4935012;29;20118;-79
2022/10/30 01:14:52;;;;;;;5.50;3.15;;;18.30;92.30;;;;;;4935995;29;20474;-78
2022/10/30 01:17:46;;;;;;;6.37;2.73;;;18.30;92.30;;;;;;4938368;29;20031;-78
2022/10/30 01:20:32;;;;;;;6.82;2.83;;;18.30;92.30;;;;;;4936922;29;20533;-78
2022/10/30 01:23:13;;;;;;;5.75;2.95;;;18.30;92.30;;;;;;4926736;29;20042;-79
2022/10/30 01:26:10;;;;;;;6.13;2.97;;;18.30;92.30;;;;;;4932800;29;20043;-79
2022/10/30 01:28:51;;;;;;;6.07;3.05;;;18.30;92.40;;;;;;4933759;29;20055;-79
2022/10/30 01:31:49;;;;;;;6.05;3.10;;;18.30;92.50;;;;;;4937240;29;20197;-79
2022/10/30 01:34:21;;;;;;;5.90;3.20;;;18.30;92.50;;;;;;4932227;29;20379;-78
2022/10/30 01:37:05;;;;;;;4.35;2.50;;;18.30;92.50;;;;;;4934668;29;20541;-78
2022/10/30 01:39:34;;;;;;;6.22;3.40;;;18.30;92.50;;;;;;4933985;29;20039;-78
2022/10/30 01:42:07;;;;;;;5.78;2.95;;;18.30;92.50;;;;;;4935683;29;20040;-79
2022/10/30 01:44:33;;;;;;;5.65;3.10;;;18.30;92.50;;;;;;4934675;29;20031;-79
2022/10/30 01:47:30;;;;;;;4.93;2.80;;;18.20;92.50;;;;;;4931662;29;20027;-79
2022/10/30 01:50:04;;;;;;;5.85;2.97;;;18.20;92.50;;;;;;4932183;29;20027;-78
2022/10/30 01:52:58;;;;;;;4.90;2.70;;;18.20;92.40;;;;;;4915761;29;20043;-79
2022/10/30 01:55:49;;;;;;;5.00;3.17;;;18.20;92.50;;;;;;4934569;29;20027;-79
2022/10/30 01:58:25;;;;;;;6.78;3.13;;;18.30;92.50;;;;;;4934827;29;20046;-78
2022/10/30 02:00:55;;;;;;;5.57;2.90;;;18.20;92.50;;;;;;4933899;29;20044;-78
2022/10/30 02:03:21;;;;;;;6.25;2.90;;;18.30;92.40;;;;;;4934254;29;20667;-79
2022/10/30 02:05:49;;;;;;;5.22;2.70;;;18.30;92.40;;;;;;4934263;29;20127;-79
2022/10/30 02:08:15;;;;;;;5.85;2.65;;;18.30;92.30;;;;;;4934144;29;20031;-78
2022/10/30 02:10:42;;;;;;;6.78;3.22;;;18.30;92.30;;;;;;4932432;29;20027;-78
2022/10/30 02:13:08;;;;;;;5.25;3.00;;;18.30;92.30;;;;;;4933798;29;20482;-79
2022/10/30 02:15:34;;;;;;;5.72;3.15;;;18.30;92.10;;;;;;4936977;29;20038;-79
2022/10/30 02:18:00;;;;;;;5.82;2.80;;;18.30;92.20;;;;;;4932880;29;20066;-78
2022/10/30 02:20:26;;;;;;;4.95;2.70;;;18.30;92.20;;;;;;4932391;29;20059;-79
2022/10/30 02:22:51;;;;;;;5.28;2.83;;;18.30;92.20;;;;;;4931710;29;20035;-78
2022/10/30 02:25:17;;;;;;;5.97;3.08;;;18.20;92.30;;;;;;4933111;29;20026;-79
2022/10/30 02:27:43;;;;;;;5.43;2.80;;;18.30;92.40;;;;;;4931616;29;20020;-78
2022/10/30 02:30:10;;;;;;;5.80;3.03;;;18.20;92.40;;;;;;4933405;29;20500;-79
2022/10/30 02:32:35;;;;;;;4.65;2.60;;;18.20;92.30;;;;;;4932999;29;20027;-78
2022/10/30 02:35:01;;;;;;;5.38;2.60;;;18.30;92.40;;;;;;4932089;29;20031;-80
2022/10/30 02:37:26;;;;;;;5.78;2.90;;;18.30;92.40;;;;;;4933248;29;20379;-78
2022/10/30 02:39:52;;;;;;;5.30;2.67;;;18.20;92.40;;;;;;4930865;29;20031;-79
2022/10/30 02:42:18;;;;;;;6.03;2.90;;;18.20;92.40;;;;;;4914810;29;20058;-78
2022/10/30 02:44:43;;;;;;;4.43;2.70;;;18.20;92.30;;;;;;4932647;29;20032;-79
2022/10/30 02:47:09;;;;;;;5.40;2.95;;;18.20;92.30;;;;;;4927104;29;20034;-78
2022/10/30 02:49:35;;;;;;;5.47;2.65;;;18.20;92.30;;;;;;4915495;29;20046;-78
2022/10/30 02:52:00;;;;;;;4.60;2.70;;;18.30;92.40;;;;;;4932118;29;20059;-79
2022/10/30 02:54:26;;;;;;;4.88;2.90;;;18.20;92.50;;;;;;4931345;29;20078;-78
2022/10/30 02:56:51;;;;;;;5.28;2.65;;;18.20;92.40;;;;;;4933536;29;20153;-79
2022/10/30 02:59:17;;;;;;;5.30;2.80;;;18.20;92.40;;;;;;4933545;29;20047;-80
2022/10/30 03:01:43;;;;;;;5.20;2.83;;;18.20;92.30;;;;;;4913555;29;20657;-79
2022/10/30 03:04:08;;;;;;;5.90;3.10;;;18.30;92.30;;;;;;4911973;29;20243;-78
2022/10/30 03:06:34;;;;;;;4.95;2.90;;;18.30;92.20;;;;;;4925929;29;20402;-79
2022/10/30 03:08:59;;;;;;;6.20;2.67;;;18.30;92.10;;;;;;4931570;29;20027;-79
2022/10/30 03:11:25;;;;;;;4.93;2.58;;;18.30;92.00;;;;;;4931687;29;20107;-79
2022/10/30 03:13:51;;;;;;;5.60;2.75;;;18.30;92.10;;;;;;4931802;29;20042;-80
2022/10/30 03:16:19;;;;;;;5.57;3.08;;;18.20;92.00;;;;;;4933089;29;20494;-80
2022/10/30 03:18:46;;;;;;;6.25;2.90;;;18.20;92.20;;;;;;4934012;29;20035;-79
2022/10/30 03:21:15;;;;;;;5.65;2.58;;;18.20;92.30;;;;;;4917813;29;20024;-80
2022/10/30 03:23:40;;;;;;;4.53;2.50;;;18.20;92.30;;;;;;4936306;29;20028;-81
2022/10/30 03:26:06;;;;;;;5.40;2.72;;;18.20;92.40;;;;;;4918510;29;20043;-80
2022/10/30 03:28:32;;;;;;;5.22;2.72;;;18.20;92.40;;;;;;4933027;29;20398;-79
2022/10/30 03:31:19;;;;;;;5.97;2.92;;;18.20;92.20;;;;;;4915275;29;20479;-79
2022/10/30 03:33:45;;;;;;;7.25;2.90;;;18.20;92.30;;;;;;4930028;29;20051;-80
2022/10/30 03:36:12;;;;;;;5.03;2.90;;;18.20;92.20;;;;;;4932526;29;20532;-79
2022/10/30 03:38:38;;;;;;;5.80;3.20;;;18.20;92.30;;;;;;4916514;29;20023;-79
2022/10/30 03:41:05;;;;;;;5.65;3.33;;;18.20;92.40;;;;;;4930766;29;20031;-79
2022/10/30 03:43:30;;;;;;;5.28;2.60;;;18.20;92.30;;;;;;4933296;29;20458;-80
2022/10/30 03:45:56;;;;;;;4.53;2.78;;;18.20;92.40;;;;;;4928719;29;20023;-80
2022/10/30 03:48:27;;;;;;;5.43;2.58;;;18.20;92.40;;;;;;4914642;29;20074;-79
2022/10/30 03:50:54;;;;;;;4.43;2.47;;;18.20;92.40;;;;;;4931924;29;20031;-79
2022/10/30 03:53:22;;;;;;;6.18;2.70;;;18.20;92.40;;;;;;4932536;29;20158;-79
2022/10/30 03:55:48;;;;;;;6.97;3.08;;;18.20;92.30;;;;;;4930790;29;20083;-79
2022/10/30 03:58:14;;;;;;;4.85;2.70;;;18.20;92.30;;;;;;4932296;29;20031;-78
2022/10/30 04:00:39;;;;;;;5.00;2.70;;;18.20;92.20;;;;;;4931616;29;20040;-79
2022/10/30 04:03:07;;;;;;;4.85;2.78;;;18.20;92.20;;;;;;4933192;29;20032;-87
2022/10/30 04:05:32;;;;;;;4.68;2.65;;;18.10;92.10;;;;;;4928797;29;20027;-86
2022/10/30 04:08:01;;;;;;;5.18;2.53;;;18.30;92.00;;;;;;4930860;29;20054;-78
2022/10/30 04:10:28;;;;;;;5.03;2.50;;;18.30;92.00;;;;;;4930538;29;20727;-78
2022/10/30 04:13:04;;;;;;;5.25;2.88;;;18.20;92.10;;;;;;4933765;29;20031;-78
2022/10/30 04:15:30;;;;;;;4.70;2.60;;;18.20;92.10;;;;;;4933722;29;20040;-79
2022/10/30 04:17:55;;;;;;;4.57;2.45;;;18.20;92.20;;;;;;4932390;29;20828;-78
2022/10/30 04:20:23;;;;;;;6.13;2.60;;;18.20;92.20;;;;;;4933028;29;20051;-79
2022/10/30 04:22:55;;;;;;;5.03;2.50;;;18.20;92.30;;;;;;4932954;29;20478;-78
2022/10/30 04:25:20;;;;;;;5.63;2.80;;;18.20;92.20;;;;;;4932420;29;20044;-78
2022/10/30 04:27:48;;;;;;;5.20;2.60;;;18.20;92.20;;;;;;4931814;29;20122;-78
2022/10/30 04:30:14;;;;;;;4.45;2.85;;;18.20;92.30;;;;;;4929785;29;20056;-78
2022/10/30 04:32:53;;;;;;;4.97;2.63;;;18.20;92.40;;;;;;4930889;29;20035;-78
2022/10/30 04:35:20;;;;;;;4.97;2.75;;;18.20;92.40;;;;;;4927903;29;20031;-78
2022/10/30 04:38:00;;;;;;;5.30;2.72;;;18.20;92.40;;;;;;4930869;29;20028;-78
2022/10/30 04:40:32;;;;;;;5.82;2.60;;;18.20;92.40;;;;;;4928112;29;20115;-78
2022/10/30 04:42:58;;;;;;;5.05;2.72;;;18.20;92.40;;;;;;4930075;29;20044;-78
2022/10/30 04:45:24;;;;;;;5.07;2.88;;;18.20;92.40;;;;;;4933844;29;20110;-79
2022/10/30 04:47:49;;;;;;;6.50;2.83;;;18.20;92.40;;;;;;4932016;29;20612;-78
2022/10/30 04:50:16;;;;;;;5.22;2.47;;;18.20;92.40;;;;;;4935106;29;20110;-79
2022/10/30 04:52:41;;;;;;;4.85;2.53;;;18.20;92.30;;;;;;4937420;29;20035;-79
2022/10/30 04:55:09;;;;;;;5.03;2.80;;;18.20;92.30;;;;;;4938044;29;20035;-77
2022/10/30 04:57:35;;;;;;;5.20;2.55;;;18.20;92.40;;;;;;4935009;29;20032;-77
2022/10/30 05:00:03;;;;;;;5.85;2.80;;;18.20;91.90;;;;;;4935053;29;20138;-79
2022/10/30 05:02:28;;;;;;;5.80;2.83;;;18.20;91.70;;;;;;4918259;29;20544;-78
2022/10/30 05:04:54;;;;;;;4.40;2.70;;;18.20;91.80;;;;;;4932088;29;20035;-79
2022/10/30 05:07:19;;;;;;;5.22;2.75;;;18.30;91.90;;;;;;4915812;29;20676;-78
2022/10/30 05:09:45;;;;;;;5.10;2.72;;;18.20;92.00;;;;;;4934744;29;20031;-79
2022/10/30 05:12:10;;;;;;;5.85;2.70;;;18.20;92.10;;;;;;4936510;29;20039;-79
2022/10/30 05:14:36;;;;;;;4.05;2.42;;;18.20;92.10;;;;;;4909245;29;20036;-78
2022/10/30 05:17:01;;;;;;;5.68;2.67;;;18.20;92.20;;;;;;4916029;29;20063;-77
2022/10/30 05:19:27;;;;;;;4.88;2.80;;;18.20;92.20;;;;;;4934043;29;20102;-79
2022/10/30 05:21:52;;;;;;;4.00;2.50;;;18.20;92.30;;;;;;4916332;29;20036;-78
2022/10/30 05:24:18;;;;;;;4.53;2.65;;;18.20;92.30;;;;;;4932849;29;20066;-79
2022/10/30 05:26:44;;;;;;;5.13;2.88;;;18.20;92.30;;;;;;4939191;29;20035;-78
2022/10/30 05:29:09;;;;;;;4.75;2.47;;;18.10;92.30;;;;;;4932066;29;20413;-78
2022/10/30 05:31:35;;;;;;;5.93;2.50;;;18.20;92.30;;;;;;4933128;29;20031;-79
2022/10/30 05:34:00;;;;;;;5.35;2.85;;;18.10;92.30;;;;;;4932764;29;20039;-78
2022/10/30 05:36:26;;;;;;;4.13;2.35;;;18.10;92.30;;;;;;4931760;29;20111;-79
2022/10/30 05:38:51;;;;;;;3.88;2.40;;;18.10;92.30;;;;;;4933671;29;20063;-79
2022/10/30 05:41:17;;;;;;;5.43;2.60;;;18.10;92.30;;;;;;4930872;29;20261;-79
2022/10/30 05:43:42;;;;;;;5.47;2.75;;;18.00;92.30;;;;;;4933243;29;20034;-78
2022/10/30 05:46:08;;;;;;;5.55;2.55;;;18.10;92.50;;;;;;4930269;29;20032;-79
2022/10/30 05:48:34;;;;;;;4.85;2.50;;;18.10;92.30;;;;;;4917432;29;20041;-78
2022/10/30 05:50:59;;;;;;;6.57;2.85;;;18.10;92.20;;;;;;4917811;29;20034;-79
2022/10/30 05:53:25;;;;;;;4.55;2.40;;;18.20;92.20;;;;;;4934203;29;20421;-79
2022/10/30 05:55:50;;;;;;;4.88;2.45;;;18.20;92.10;;;;;;4932069;29;20035;-78
2022/10/30 05:58:16;;;;;;;5.47;2.80;;;18.20;92.00;;;;;;4931548;29;20036;-78
2022/10/30 06:00:43;;;;;;;4.90;2.63;;;18.20;92.00;;;;;;4932931;29;20113;-78
2022/10/30 06:03:12;;;;;;;6.22;2.80;;;18.20;91.90;;;;;;4931925;29;20059;-78
2022/10/30 06:05:38;;;;;;;4.60;2.72;;;18.20;92.10;;;;;;4931359;29;20577;-79
2022/10/30 06:08:05;;;;;;;4.35;2.47;;;18.20;92.00;;;;;;4932475;29;20028;-78
2022/10/30 06:10:31;;;;;;;4.95;2.63;;;18.20;92.00;;;;;;4934116;29;20038;-78
2022/10/30 06:13:02;;;;;;;4.75;2.60;;;18.20;92.10;;;;;;4936750;29;20194;-78
2022/10/30 06:15:29;;;;;;;5.72;2.70;;;18.10;92.20;;;;;;4932932;29;20038;-78
2022/10/30 06:17:54;;;;;;;4.75;2.47;;;18.10;92.20;;;;;;4933324;29;20177;-78
2022/10/30 06:20:22;;;;;;;4.55;2.72;;;18.20;92.30;;;;;;4931068;29;20581;-77
2022/10/30 06:23:04;;;;;;;4.55;2.50;;;18.10;92.30;;;;;;4931544;29;20040;-77
2022/10/30 06:25:32;;;;;;;5.28;2.70;;;18.10;92.30;;;;;;4931746;29;20483;-78
2022/10/30 06:27:58;;;;;;;4.97;2.58;;;18.10;92.30;;;;;;4931648;29;21074;-77
2022/10/30 06:30:24;;;;;;;5.57;2.70;;;18.10;92.30;;;;;;4931779;29;20118;-77
2022/10/30 06:32:58;;;;;;;4.75;2.60;;;18.10;92.30;;;;;;4915944;29;20035;-79
2022/10/30 06:35:24;;;;;;;4.93;2.60;;;18.10;92.30;;;;;;4933295;29;20111;-77
2022/10/30 06:37:52;;;;;;;6.45;2.80;;;18.10;92.30;;;;;;4911812;29;20492;-77
2022/10/30 06:40:18;;;;;;;5.20;3.00;;;18.10;92.20;;;;;;4915978;29;20028;-79
2022/10/30 06:42:45;;;;;;;4.40;2.47;;;18.10;92.20;;;;;;4911357;29;20556;-79
2022/10/30 06:45:12;;;;;;;4.53;2.25;;;18.10;92.20;;;;;;4903299;29;20696;-78
2022/10/30 06:47:38;;;;;;;4.70;2.40;;;18.10;92.10;;;;;;4931229;29;20066;-78
2022/10/30 06:50:05;;;;;;;5.85;2.70;;;18.10;92.00;;;;;;4911582;29;20028;-78
2022/10/30 06:52:31;;;;;;;5.68;2.30;;;18.20;91.90;;;;;;4930294;29;20044;-78
2022/10/30 06:54:57;;;;;;;6.43;2.85;;;18.20;91.70;;;;;;4914283;29;20406;-79
2022/10/30 06:57:22;;;;;;;5.47;2.72;;;18.20;91.50;;;;;;4913752;29;20028;-79
2022/10/30 06:59:48;;;;;;;4.88;2.72;;;18.30;91.40;;;;;;4913128;29;20554;-78
2022/10/30 07:02:13;;;;;;;4.85;2.47;;;18.30;91.60;;;;;;4906425;29;20684;-78
2022/10/30 07:04:39;;;;;;;4.75;2.78;;;18.30;91.40;;;;;;4929566;29;20032;-77
2022/10/30 07:07:04;;;;;;;5.72;2.53;;;18.30;91.40;;;;;;4930540;29;20024;-78
2022/10/30 07:09:30;;;;;;;5.72;2.50;;;18.30;91.50;;;;;;4931961;29;20031;-79
2022/10/30 07:11:55;;;;;;;4.70;2.30;;;18.30;91.50;;;;;;4910642;29;20123;-79
2022/10/30 07:14:21;;;;;;;6.95;2.55;;;18.30;91.50;;;;;;4924734;29;20031;-78
2022/10/30 07:16:47;;;;;;;4.80;2.70;;;18.20;91.50;;;;;;4920871;29;20043;-79
2022/10/30 07:19:12;;;;;;;4.75;2.60;;;18.30;91.50;;;;;;4929806;29;20037;-79
2022/10/30 07:21:38;;;;;;;4.60;2.40;;;18.40;91.50;;;;;;4932322;29;20144;-79
2022/10/30 07:24:04;;;;;;;4.82;2.50;;;18.40;91.40;;;;;;4931991;29;20024;-78
2022/10/30 07:26:29;;;;;;;4.78;2.42;;;18.40;91.40;;;;;;4931488;29;20027;-78
2022/10/30 07:28:55;;;;;;;5.03;2.75;;;18.40;91.30;;;;;;4928781;29;20039;-78
2022/10/30 07:31:21;;;;;;;4.85;2.40;;;18.40;91.20;;;;;;4928995;29;20494;-77
2022/10/30 07:33:46;;;;;;;5.55;2.50;;;18.50;91.20;;;;;;4930516;29;20040;-79
2022/10/30 07:36:13;;;;;;;4.45;2.53;;;18.50;91.20;;;;;;4932354;29;20042;-78
2022/10/30 07:38:39;;;;;;;4.68;2.30;;;18.50;91.10;;;;;;4906566;29;20038;-78
2022/10/30 07:41:04;;;;;;;4.53;2.45;;;18.60;91.10;;;;;;4933274;29;20039;-79
2022/10/30 07:43:30;;;;;;;4.35;2.30;;;18.60;91.00;;;;;;4916676;29;20498;-80
2022/10/30 07:45:56;;;;;;;4.78;2.42;;;18.70;90.90;;;;;;4933927;29;20058;-79
2022/10/30 07:48:22;;;;;;;4.28;2.15;;;18.70;90.80;;;;;;4917991;29;20024;-79
2022/10/30 07:50:47;;;;;;;5.72;2.40;;;18.70;90.70;;;;;;4913641;29;20024;-77
2022/10/30 07:53:13;;;;;;;4.05;2.22;;;18.80;90.60;;;;;;4924365;29;20035;-78
2022/10/30 07:55:40;;;;;;;3.92;2.30;;;18.80;90.50;;;;;;4928853;29;20115;-78
2022/10/30 07:58:06;;;;;;;5.00;2.40;;;18.80;90.40;;;;;;4926537;29;20054;-77
2022/10/30 08:00:31;;;;;;;4.45;2.22;;;18.90;90.30;;;;;;4929466;29;20398;-78
2022/10/30 08:02:57;;;;;;;4.70;2.20;;;18.90;90.30;;;;;;4931085;29;20047;-78
2022/10/30 08:05:23;;;;;;;4.90;2.40;;;18.90;90.30;;;;;;4930469;29;20055;-79
2022/10/30 08:07:48;;;;;;;4.75;2.20;;;18.90;90.30;;;;;;4927115;29;20539;-77
2022/10/30 08:10:14;;;;;;;4.45;2.20;;;18.90;90.30;;;;;;4929324;29;20032;-78
2022/10/30 08:12:42;;;;;;;4.35;2.45;;;19.00;90.20;;;;;;4928383;29;20567;-80
2022/10/30 08:15:09;;;;;;;4.40;2.20;;;19.00;90.20;;;;;;4930416;29;20023;-79
2022/10/30 08:17:44;;;;;;;4.72;2.20;;;19.00;90.20;;;;;;4930960;29;20039;-77
2022/10/30 08:20:11;;;;;;;4.55;2.30;;;19.10;90.20;;;;;;4929078;29;20112;-77
2022/10/30 08:22:51;;;;;;;5.50;2.45;;;19.10;90.20;;;;;;4912077;29;20058;-77
2022/10/30 08:25:18;;;;;;;3.95;2.25;;;19.10;90.10;;;;;;4928078;29;20505;-78
2022/10/30 08:27:58;;;;;;;4.10;2.28;;;19.10;90.10;;;;;;4929514;29;20042;-79
2022/10/30 08:30:26;;;;;;;4.00;2.25;;;19.10;90.10;;;;;;4928122;29;20079;-76
2022/10/30 08:32:55;;;;;;;3.75;2.20;;;19.20;90.10;;;;;;4923610;29;20466;-78
2022/10/30 08:35:21;;;;;;;4.57;2.45;;;19.10;90.00;;;;;;4930511;29;20044;-79
2022/10/30 08:37:46;;;;;;;4.40;2.30;;;19.20;90.00;;;;;;4929286;29;20031;-79
2022/10/30 08:40:12;;;;;;;5.65;2.30;;;19.20;90.00;;;;;;4929687;29;20474;-79
2022/10/30 08:42:38;;;;;;;4.25;2.05;;;19.30;89.90;;;;;;4931797;29;20048;-78
2022/10/30 08:45:05;;;;;;;4.45;2.40;;;19.30;89.80;;;;;;4913689;29;20027;-79
2022/10/30 08:47:30;;;;;;;4.07;2.20;;;19.30;89.50;;;;;;4929369;29;20170;-79
2022/10/30 08:49:56;;;;;;;3.72;2.13;;;19.30;89.30;;;;;;4929787;29;20111;-78
2022/10/30 08:52:21;;;;;;;3.08;1.90;;;19.40;89.30;;;;;;4929116;29;20139;-77
2022/10/30 08:54:47;;;;;;;3.53;2.00;;;19.40;89.10;;;;;;4929938;29;20079;-78
2022/10/30 08:57:12;;;;;;;4.45;2.17;;;19.40;89.10;;;;;;4930677;29;20035;-76
2022/10/30 08:59:38;;;;;;;4.50;2.53;;;19.40;89.20;;;;;;4929015;29;20036;-79
2022/10/30 09:02:03;;;;;;;3.95;2.20;;;19.40;89.20;;;;;;4930201;29;20035;-78
2022/10/30 09:04:29;;;;;;;3.35;2.00;;;19.40;89.10;;;;;;4914712;29;20032;-78
2022/10/30 09:06:54;;;;;;;4.55;2.35;;;19.40;89.00;;;;;;4933411;29;20032;-84
2022/10/30 09:09:20;;;;;;;4.05;2.20;;;19.50;89.10;;;;;;4930671;29;20643;-78
2022/10/30 09:11:47;;;;;;;4.03;2.28;;;19.50;89.10;;;;;;4918449;29;20038;-85
2022/10/30 09:14:13;;;;;;;4.18;2.15;;;19.40;89.00;;;;;;4922298;29;20027;-83
2022/10/30 09:16:38;;;;;;;5.20;2.33;;;19.50;89.00;;;;;;4931696;29;20039;-77
2022/10/30 09:19:04;;;;;;;5.03;2.50;;;19.50;89.00;;;;;;4929422;29;20039;-80
2022/10/30 09:21:29;;;;;;;4.05;2.20;;;19.60;89.10;;;;;;4927326;29;20300;-79
2022/10/30 09:23:55;;;;;;;3.80;1.83;;;19.50;89.00;;;;;;4929481;29;20016;-80
2022/10/30 09:26:20;;;;;;;3.30;2.08;;;19.50;89.00;;;;;;4929714;29;20039;-78
2022/10/30 09:28:46;;;;;;;4.38;2.30;;;19.50;89.00;;;;;;4928714;29;20051;-79
2022/10/30 09:31:11;;;;;;;3.83;1.85;;;19.50;89.10;;;;;;4934574;29;20516;-79
2022/10/30 09:33:37;;;;;;;4.53;2.20;;;19.50;89.10;;;;;;4932124;29;20039;-81
2022/10/30 09:36:03;;;;;;;4.60;2.00;;;19.40;89.00;;;;;;4932438;29;20115;-79
2022/10/30 09:38:29;;;;;;;3.75;2.25;;;19.50;89.10;;;;;;4932659;29;20039;-79
2022/10/30 09:41:10;;;;;;;3.58;2.10;;;19.60;89.00;;;;;;4930767;29;20517;-81
2022/10/30 09:43:57;;;;;;;4.70;2.10;;;19.60;88.90;;;;;;4931241;29;20502;-78
2022/10/30 09:46:46;;;;;;;4.25;2.30;;;19.60;88.70;;;;;;4916966;29;20501;-78
2022/10/30 09:49:27;;;;;;;3.38;1.90;;;19.60;88.60;;;;;;4933208;29;20106;-78
2022/10/30 09:52:02;;;;;;;4.22;2.28;;;19.60;88.70;;;;;;4932761;29;20110;-80
2022/10/30 09:54:46;;;;;;;4.93;2.25;;;19.50;88.80;;;;;;4915156;29;20028;-77
2022/10/30 09:57:47;;;;;;;3.45;1.90;;;19.50;88.80;;;;;;4914550;29;20042;-78
2022/10/30 10:00:17;;;;;;;4.20;2.40;;;19.50;88.80;;;;;;4926654;29;20043;-80
2022/10/30 10:02:57;;;;;;;3.20;1.73;;;19.50;88.90;;;;;;4926791;29;20506;-80
2022/10/30 10:05:58;;;;;;;3.72;2.20;;;19.60;89.00;;;;;;4931264;29;20047;-80
2022/10/30 10:08:32;;;;;;;4.45;2.03;;;19.50;89.10;;;;;;4933159;29;20046;-80
2022/10/30 10:11:03;;;;;;;3.58;2.00;;;19.50;89.20;;;;;;4930164;29;20164;-79
2022/10/30 10:13:52;;;;;;;3.45;1.85;;;19.50;89.10;;;;;;4930948;29;20055;-78
2022/10/30 10:16:38;;;;;;;3.47;2.20;;;19.60;89.20;;;;;;4930484;29;20027;-80
2022/10/30 10:19:03;;;;;;;3.75;2.05;;;19.50;89.30;;;;;;4936718;29;20069;-81
2022/10/30 10:21:32;;;;;;;3.72;1.88;;;19.50;89.40;;;;;;4916352;29;20451;-79
2022/10/30 10:24:02;;;;;;;3.55;1.77;;;19.50;89.30;;;;;;4932968;29;20339;-79
2022/10/30 10:26:54;;;;;;;2.35;1.73;;;19.50;89.20;;;;;;4935630;29;20027;-80
2022/10/30 10:29:40;;;;;;;3.67;2.15;;;19.60;89.70;;;;;;4930378;29;20027;-79
2022/10/30 10:32:24;;;;;;;3.53;1.83;;;19.60;89.20;;;;;;4912437;29;20126;-80
2022/10/30 10:34:55;;;;;;;3.13;1.85;;;19.60;89.10;;;;;;4925306;29;20055;-79
2022/10/30 10:37:43;;;;;;;3.63;1.95;;;19.70;89.00;;;;;;4929404;29;20032;-80
2022/10/30 10:40:33;;;;;;;3.28;2.00;;;19.70;88.80;;;;;;4933724;29;20118;-77
2022/10/30 10:43:02;;;;;;;;;;;19.70;88.70;;;;;;4916788;29;20132;-78
2022/10/30 10:45:39;;;;;;;3.33;1.85;;;19.70;88.70;;;;;;4921531;29;19997;-78
2022/10/30 10:48:41;;;;;;;4.03;2.10;;;19.70;88.70;;;;;;4929713;29;20020;-77
2022/10/30 10:51:15;;;;;;;3.00;1.80;;;19.70;88.60;;;;;;4914252;29;20691;-78
2022/10/30 10:54:10;;;;;;;3.60;1.95;;;19.70;88.60;;;;;;4926447;29;20036;-79
2022/10/30 10:56:40;;;;;;;3.35;1.90;;;19.70;88.60;;;;;;4919829;29;20532;-78
2022/10/30 10:59:11;;;;;;;3.25;2.03;;;19.70;88.60;;;;;;4928330;29;20130;-79
2022/10/30 11:01:42;;;;;;;3.40;1.88;;;19.70;88.70;;;;;;4930348;29;20038;-77
2022/10/30 11:04:28;;;;;;;3.17;1.98;;;19.70;88.80;;;;;;4930618;29;20032;-78
2022/10/30 11:06:55;;;;;;;4.50;2.17;;;19.70;88.70;;;;;;4929744;29;20469;-78
2022/10/30 11:09:22;;;;;;;3.83;1.85;;;19.70;88.80;;;;;;4930288;29;20063;-79
2022/10/30 11:11:54;;;;;;;3.67;2.20;;;19.70;88.70;;;;;;4929179;29;20475;-79
2022/10/30 11:14:27;;;;;;;3.55;1.88;;;19.70;88.70;;;;;;4928327;29;20119;-78
2022/10/30 11:17:18;;;;;;;3.55;1.83;;;19.70;88.80;;;;;;4928232;29;20074;-79
2022/10/30 11:19:44;;;;;;;4.45;2.10;;;19.70;88.70;;;;;;4930306;29;20023;-78
2022/10/30 11:22:27;;;;;;;3.55;1.95;;;19.70;88.80;;;;;;4927983;29;20024;-80
2022/10/30 11:24:52;;;;;;;3.90;2.00;;;19.70;88.80;;;;;;4910671;29;20158;-76
2022/10/30 11:27:29;;;;;;;4.07;2.10;;;19.60;88.70;;;;;;4927025;29;20070;-80
2022/10/30 11:30:00;;;;;;;3.22;1.90;;;19.70;88.70;;;;;;4929216;29;20055;-80
2022/10/30 11:32:33;;;;;;;3.42;2.03;;;19.70;88.60;;;;;;4928059;29;20031;-78
2022/10/30 11:35:11;;;;;;;4.13;2.15;;;19.80;88.60;;;;;;4933281;29;20036;-78
2022/10/30 11:37:39;;;;;;;3.55;2.00;;;19.80;88.50;;;;;;4932316;29;20024;-81
2022/10/30 11:40:10;;;;;;;3.08;1.83;;;19.70;88.40;;;;;;4933604;29;20028;-79
2022/10/30 11:42:37;;;;;;;;;;;19.70;88.40;;;;;;4916399;29;20035;-79
2022/10/30 11:45:04;;;;;;;3.30;1.80;;;19.70;88.50;;;;;;4931548;29;19915;-79
2022/10/30 11:47:34;;;;;;;2.97;1.90;;;19.70;88.50;;;;;;4931012;29;20024;-79
2022/10/30 11:50:03;;;;;;;3.17;1.77;;;19.80;88.70;;;;;;4928987;29;20051;-79
2022/10/30 11:52:35;;;;;;;3.60;1.90;;;19.70;88.70;;;;;;4933043;29;20478;-79
2022/10/30 11:55:09;;;;;;;3.42;1.98;;;19.70;88.80;;;;;;4934027;29;20027;-80
2022/10/30 11:57:43;;;;;;;3.70;1.98;;;19.70;88.90;;;;;;4928809;29;20869;-78
2022/10/30 12:00:18;;;;;;;4.07;2.00;;;19.70;89.00;;;;;;4927938;29;20036;-78
2022/10/30 12:02:45;;;;;;;3.53;1.90;;;19.70;89.00;;;;;;4906264;29;20043;-79
2022/10/30 12:05:40;;;;;;;3.03;1.80;;;19.60;89.10;;;;;;4915715;29;20405;-78
2022/10/30 12:08:06;;;;;;;2.85;1.73;;;19.60;89.20;;;;;;4928684;29;20043;-83
2022/10/30 12:10:37;;;;;;;2.83;1.70;;;19.60;89.30;;;;;;4915353;29;20087;-79
2022/10/30 12:13:11;;;;;;;3.25;1.88;;;19.60;89.30;;;;;;4930489;29;20458;-81
2022/10/30 12:15:37;;;;;;;2.85;1.75;;;19.60;89.30;;;;;;4930055;29;20040;-79
2022/10/30 12:18:06;;;;;;;2.65;1.73;;;19.60;89.30;;;;;;4928875;29;20035;-77
2022/10/30 12:20:35;;;;;;;3.35;2.00;;;19.60;89.40;;;;;;4920548;29;20038;-79
2022/10/30 12:23:16;;;;;;;2.92;1.77;;;19.60;89.40;;;;;;4928795;29;20032;-79
2022/10/30 12:25:46;;;;;;;3.08;1.92;;;19.50;89.30;;;;;;4920373;29;20091;-78
2022/10/30 12:28:19;;;;;;;3.33;1.77;;;19.60;89.30;;;;;;4928750;29;20063;-80
2022/10/30 12:30:59;;;;;;;3.75;1.90;;;19.60;89.30;;;;;;4930498;29;20028;-78
2022/10/30 12:34:02;;;;;;;2.63;1.73;;;19.60;89.20;;;;;;4933891;29;20024;-79
2022/10/30 12:36:34;;;;;;;3.22;1.70;;;19.60;89.20;;;;;;4931367;29;20495;-78
2022/10/30 12:39:39;;;;;;;3.58;1.83;;;19.60;89.20;;;;;;4929751;29;20062;-79
2022/10/30 12:42:11;;;;;;;3.53;1.83;;;19.60;89.40;;;;;;4901370;29;20044;-82
2022/10/30 12:44:45;;;;;;;3.13;1.80;;;19.60;89.40;;;;;;4930207;29;20035;-80
2022/10/30 12:47:14;;;;;;;3.40;1.80;;;19.60;89.50;;;;;;4914918;29;20036;-79
2022/10/30 12:49:44;;;;;;;2.70;1.55;;;19.60;89.60;;;;;;4931971;29;20028;-79
2022/10/30 12:52:24;;;;;;;3.22;1.90;;;19.50;89.70;;;;;;4932559;29;20036;-79
2022/10/30 12:55:12;;;;;;;3.40;1.90;;;19.50;89.90;;;;;;4932170;29;20031;-80
2022/10/30 12:57:47;;;;;;;3.40;1.67;;;19.50;90.00;;;;;;4917881;29;20035;-80
2022/10/30 13:00:15;;;;;;;3.13;1.65;;;19.50;90.00;;;;;;4932932;29;20028;-79
2022/10/30 13:02:43;;;;;;;3.42;1.90;;;19.40;90.00;;;;;;4931064;29;20047;-81